sensor_id;sensor_type;location;lat;lon;timestamp;P1;P2;P0
62981;PMS5003;49075;53.988;27.678;2022-09-20T00:03:44;14;12.8;8.3
62981;PMS5003;49075;53.988;27.678;2022-09-20T00:08:34;14.6;14;9.6
62981;PMS5003;49075;53.988;27.678;2022-09-20T00:14:14;12;11.4;8.8
62981;PMS5003;49075;53.988;27.678;2022-09-20T00:19:16;12.2;12.2;8.2
62981;PMS5003;49075;53.988;27.678;2022-09-20T00:24:14;13.6;12.8;8.4
62981;PMS5003;49075;53.988;27.678;2022-09-20T00:29:12;9.6;9.4;6.2
62981;PMS5003;49075;53.988;27.678;2022-09-20T00:33:58;11;10.8;8.2
62981;PMS5003;49075;53.988;27.678;2022-09-20T00:38:42;11.8;11.6;8.2
62981;PMS5003;49075;53.988;27.678;2022-09-20T00:48:44;11.2;11;7.8
62981;PMS5003;49075;53.988;27.678;2022-09-20T00:54:14;10.4;10.2;7
62981;PMS5003;49075;53.988;27.678;2022-09-20T00:58:38;12.4;12;8.6
62981;PMS5003;49075;53.988;27.678;2022-09-20T01:03:36;11.6;11;8
62981;PMS5003;49075;53.988;27.678;2022-09-20T01:08:36;10.8;10.5;7.8
62981;PMS5003;49075;53.988;27.678;2022-09-20T01:14:14;11;10.8;6.8
62981;PMS5003;49075;53.988;27.678;2022-09-20T01:19:18;9.6;9;7.4
62981;PMS5003;49075;53.988;27.678;2022-09-20T01:24:54;8.8;8.8;6.8
62981;PMS5003;49075;53.988;27.678;2022-09-20T01:28:40;8;8;6
62981;PMS5003;49075;53.988;27.678;2022-09-20T01:34:10;11.8;11.6;7
62981;PMS5003;49075;53.988;27.678;2022-09-20T01:38:36;11;10.4;7.6
62981;PMS5003;49075;53.988;27.678;2022-09-20T01:43:47;9.6;9.4;7.2
62981;PMS5003;49075;53.988;27.678;2022-09-20T01:48:33;10.2;9.6;7
62981;PMS5003;49075;53.988;27.678;2022-09-20T01:53:53;11.4;11.2;8
62981;PMS5003;49075;53.988;27.678;2022-09-20T02:03:47;9.2;9;7
62981;PMS5003;49075;53.988;27.678;2022-09-20T02:13:47;11.4;11.2;8
62981;PMS5003;49075;53.988;27.678;2022-09-20T02:18:54;10.8;10.6;7.4
62981;PMS5003;49075;53.988;27.678;2022-09-20T02:25:13;11.2;11.2;7.8
62981;PMS5003;49075;53.988;27.678;2022-09-20T02:29:46;9.8;9.4;7.4
62981;PMS5003;49075;53.988;27.678;2022-09-20T02:38:39;11;10.6;7.2
62981;PMS5003;49075;53.988;27.678;2022-09-20T02:43:47;12;11.2;8
62981;PMS5003;49075;53.988;27.678;2022-09-20T02:53:46;12.6;12.2;8.4
62981;PMS5003;49075;53.988;27.678;2022-09-20T02:59:52;10.8;10.6;8.8
62981;PMS5003;49075;53.988;27.678;2022-09-20T03:03:54;11;10.6;8.2
62981;PMS5003;49075;53.988;27.678;2022-09-20T03:09:46;12.8;12.8;9.5
62981;PMS5003;49075;53.988;27.678;2022-09-20T03:14:15;19;19;10
62981;PMS5003;49075;53.988;27.678;2022-09-20T03:18:50;17;17;12
62981;PMS5003;49075;53.988;27.678;2022-09-20T03:23:43;16.5;15.8;9.8
62981;PMS5003;49075;53.988;27.678;2022-09-20T03:28:37;13.6;13.6;9.8
62981;PMS5003;49075;53.988;27.678;2022-09-20T03:33:45;14.4;13;9
62981;PMS5003;49075;53.988;27.678;2022-09-20T03:38:42;15.6;14.8;9.8
62981;PMS5003;49075;53.988;27.678;2022-09-20T03:44:15;18;17.4;11
62981;PMS5003;49075;53.988;27.678;2022-09-20T03:48:58;18.6;18.2;13
62981;PMS5003;49075;53.988;27.678;2022-09-20T04:00:20;16.2;15.4;10.4
62981;PMS5003;49075;53.988;27.678;2022-09-20T04:08:46;18;16.8;11.6
62981;PMS5003;49075;53.988;27.678;2022-09-20T04:14:16;16.8;16.2;10.2
62981;PMS5003;49075;53.988;27.678;2022-09-20T04:18:48;18.8;17.8;12.2
62981;PMS5003;49075;53.988;27.678;2022-09-20T04:23:49;17.5;17;11
62981;PMS5003;49075;53.988;27.678;2022-09-20T04:30:18;17.4;17;11.4
62981;PMS5003;49075;53.988;27.678;2022-09-20T04:33:34;20.2;20.2;13.6
62981;PMS5003;49075;53.988;27.678;2022-09-20T04:39:22;22.8;20.2;14
62981;PMS5003;49075;53.988;27.678;2022-09-20T04:49:12;21.4;21;14.2
62981;PMS5003;49075;53.988;27.678;2022-09-20T04:53:53;20;19.4;13.6
62981;PMS5003;49075;53.988;27.678;2022-09-20T05:09:19;23.4;22;15.8
62981;PMS5003;49075;53.988;27.678;2022-09-20T05:14:17;23.2;22.2;15
62981;PMS5003;49075;53.988;27.678;2022-09-20T05:19:12;21.8;21.2;14.8
62981;PMS5003;49075;53.988;27.678;2022-09-20T05:25:13;26.5;26.3;17.5
62981;PMS5003;49075;53.988;27.678;2022-09-20T05:28:37;22.6;22.4;15.6
62981;PMS5003;49075;53.988;27.678;2022-09-20T05:39:20;29.2;27.4;17.6
62981;PMS5003;49075;53.988;27.678;2022-09-20T05:44:30;33.8;30.8;19
62981;PMS5003;49075;53.988;27.678;2022-09-20T05:49:00;28.8;27;16.4
62981;PMS5003;49075;53.988;27.678;2022-09-20T05:54:06;29;27.6;17.8
62981;PMS5003;49075;53.988;27.678;2022-09-20T05:59:14;28.6;27.6;17.8
62981;PMS5003;49075;53.988;27.678;2022-09-20T06:03:40;24;22.6;15.2
62981;PMS5003;49075;53.988;27.678;2022-09-20T06:09:29;30.4;29.2;18
62981;PMS5003;49075;53.988;27.678;2022-09-20T06:19:05;25.2;23.4;15.4
62981;PMS5003;49075;53.988;27.678;2022-09-20T06:23:44;25;24.3;15.8
62981;PMS5003;49075;53.988;27.678;2022-09-20T06:28:47;25;24.4;15.4
62981;PMS5003;49075;53.988;27.678;2022-09-20T06:33:57;26.4;25.6;16
62981;PMS5003;49075;53.988;27.678;2022-09-20T06:43:50;23.6;20;13.6
62981;PMS5003;49075;53.988;27.678;2022-09-20T06:48:44;23.4;22.2;14.2
62981;PMS5003;49075;53.988;27.678;2022-09-20T06:53:38;22.8;21.4;13.2
62981;PMS5003;49075;53.988;27.678;2022-09-20T06:59:14;23.6;22.8;13.8
62981;PMS5003;49075;53.988;27.678;2022-09-20T07:04:12;25.4;24.6;15.4
62981;PMS5003;49075;53.988;27.678;2022-09-20T07:08:40;24.2;23.6;15.6
62981;PMS5003;49075;53.988;27.678;2022-09-20T07:13:58;24.2;23.8;14
62981;PMS5003;49075;53.988;27.678;2022-09-20T07:19:12;25;23.2;13.8
62981;PMS5003;49075;53.988;27.678;2022-09-20T07:24:12;26.3;23.8;15.8
62981;PMS5003;49075;53.988;27.678;2022-09-20T07:28:44;28.2;26.4;16.4
62981;PMS5003;49075;53.988;27.678;2022-09-20T07:33:30;31.2;29.8;18.4
62981;PMS5003;49075;53.988;27.678;2022-09-20T07:38:46;29.6;28;17.6
62981;PMS5003;49075;53.988;27.678;2022-09-20T07:43:46;28.4;26.4;17
62981;PMS5003;49075;53.988;27.678;2022-09-20T07:49:00;26.8;25.6;16.2
62981;PMS5003;49075;53.988;27.678;2022-09-20T07:53:38;27;26.4;16.8
62981;PMS5003;49075;53.988;27.678;2022-09-20T07:59:14;29.2;26.8;15.6
62981;PMS5003;49075;53.988;27.678;2022-09-20T08:03:40;28.6;26.6;16.6
62981;PMS5003;49075;53.988;27.678;2022-09-20T08:08:44;24.4;23;15
62981;PMS5003;49075;53.988;27.678;2022-09-20T08:13:57;25.8;25;15.4
62981;PMS5003;49075;53.988;27.678;2022-09-20T08:19:15;23.6;23;13.6
62981;PMS5003;49075;53.988;27.678;2022-09-20T08:24:14;28.3;26.3;15
62981;PMS5003;49075;53.988;27.678;2022-09-20T08:28:58;28.8;27.6;17.8
62981;PMS5003;49075;53.988;27.678;2022-09-20T08:34:12;30.2;28.2;17.6
62981;PMS5003;49075;53.988;27.678;2022-09-20T08:39:13;26.8;25.4;15.6
62981;PMS5003;49075;53.988;27.678;2022-09-20T08:44:15;26.8;24.6;16.4
62981;PMS5003;49075;53.988;27.678;2022-09-20T08:48:54;24.6;23.6;14.6
62981;PMS5003;49075;53.988;27.678;2022-09-20T08:54:14;25.2;23.6;14.8
62981;PMS5003;49075;53.988;27.678;2022-09-20T08:59:14;29.4;27.6;17.4
62981;PMS5003;49075;53.988;27.678;2022-09-20T09:03:44;29.6;27.4;16.6
62981;PMS5003;49075;53.988;27.678;2022-09-20T09:08:44;29;27.4;17.2
62981;PMS5003;49075;53.988;27.678;2022-09-20T09:13:43;25.4;24.2;14.4
62981;PMS5003;49075;53.988;27.678;2022-09-20T09:18:34;26;24.6;15.6
62981;PMS5003;49075;53.988;27.678;2022-09-20T09:24:15;29.4;27.6;17.2
62981;PMS5003;49075;53.988;27.678;2022-09-20T09:29:19;30.8;29.3;18.5
62981;PMS5003;49075;53.988;27.678;2022-09-20T09:33:42;30;27.4;17.4
62981;PMS5003;49075;53.988;27.678;2022-09-20T09:38:42;27;25;16.2
62981;PMS5003;49075;53.988;27.678;2022-09-20T09:43:34;30.4;29.2;18.6
62981;PMS5003;49075;53.988;27.678;2022-09-20T09:48:32;29.6;28.4;17.4
62981;PMS5003;49075;53.988;27.678;2022-09-20T09:53:46;29;28;17.4
62981;PMS5003;49075;53.988;27.678;2022-09-20T09:58:50;31.2;28;18
62981;PMS5003;49075;53.988;27.678;2022-09-20T10:03:41;39.2;34.4;22
62981;PMS5003;49075;53.988;27.678;2022-09-20T10:09:15;38.8;34;22
62981;PMS5003;49075;53.988;27.678;2022-09-20T10:13:52;38.6;33.8;22.2
62981;PMS5003;49075;53.988;27.678;2022-09-20T10:18:56;38.8;33.8;21.8
62981;PMS5003;49075;53.988;27.678;2022-09-20T10:23:36;37;33.2;21.4
62981;PMS5003;49075;53.988;27.678;2022-09-20T10:29:28;36;33.3;20.3
62981;PMS5003;49075;53.988;27.678;2022-09-20T10:33:42;26.4;25.2;16.4
62981;PMS5003;49075;53.988;27.678;2022-09-20T10:38:34;17.6;16.6;10.2
62981;PMS5003;49075;53.988;27.678;2022-09-20T10:44:14;17;16.4;10.6
62981;PMS5003;49075;53.988;27.678;2022-09-20T10:53:57;16.6;15;10
62981;PMS5003;49075;53.988;27.678;2022-09-20T10:59:51;20.8;19.2;13.2
62981;PMS5003;49075;53.988;27.678;2022-09-20T11:03:40;18.4;16.4;10.8
62981;PMS5003;49075;53.988;27.678;2022-09-20T11:08:33;20.4;19.4;12.8
62981;PMS5003;49075;53.988;27.678;2022-09-20T11:13:39;17.8;17;11
62981;PMS5003;49075;53.988;27.678;2022-09-20T11:18:59;18.6;17.6;13.2
62981;PMS5003;49075;53.988;27.678;2022-09-20T11:24:25;17;16;11.4
62981;PMS5003;49075;53.988;27.678;2022-09-20T11:28:43;16.8;16;11
62981;PMS5003;49075;53.988;27.678;2022-09-20T11:33:51;15.2;15.2;11
62981;PMS5003;49075;53.988;27.678;2022-09-20T11:39:52;16.6;16;11.4
62981;PMS5003;49075;53.988;27.678;2022-09-20T11:43:39;15.8;15.8;10.8
62981;PMS5003;49075;53.988;27.678;2022-09-20T11:48:43;18.2;17.4;11
62981;PMS5003;49075;53.988;27.678;2022-09-20T11:54:24;16;15;11
62981;PMS5003;49075;53.988;27.678;2022-09-20T11:58:42;16.8;16.2;10.2
62981;PMS5003;49075;53.988;27.678;2022-09-20T12:03:51;17;16.2;10.6
62981;PMS5003;49075;53.988;27.678;2022-09-20T12:09:34;16.4;16;10.8
62981;PMS5003;49075;53.988;27.678;2022-09-20T12:13:51;17.6;16;11.4
62981;PMS5003;49075;53.988;27.678;2022-09-20T12:18:37;17;16.6;11
62981;PMS5003;49075;53.988;27.678;2022-09-20T12:24:19;16.6;15.8;10.6
62981;PMS5003;49075;53.988;27.678;2022-09-20T12:28:45;17.8;16.5;11.5
62981;PMS5003;49075;53.988;27.678;2022-09-20T12:39:17;14;13;8.4
62981;PMS5003;49075;53.988;27.678;2022-09-20T12:43:48;11.6;11.4;8.6
62981;PMS5003;49075;53.988;27.678;2022-09-20T12:48:42;7.8;7.8;6
62981;PMS5003;49075;53.988;27.678;2022-09-20T12:53:40;9.6;9.2;7
62981;PMS5003;49075;53.988;27.678;2022-09-20T12:58:47;8.4;8.2;6.4
62981;PMS5003;49075;53.988;27.678;2022-09-20T13:04:50;7;7;5.2
62981;PMS5003;49075;53.988;27.678;2022-09-20T13:08:34;8.4;8.4;6
62981;PMS5003;49075;53.988;27.678;2022-09-20T13:14:00;8.6;8.4;6.6
62981;PMS5003;49075;53.988;27.678;2022-09-20T13:19:34;9.6;9;7.2
62981;PMS5003;49075;53.988;27.678;2022-09-20T13:23:49;7.2;7.2;5.8
62981;PMS5003;49075;53.988;27.678;2022-09-20T13:29:20;7;7;5.8
62981;PMS5003;49075;53.988;27.678;2022-09-20T13:34:18;6.8;6.8;5.6
62981;PMS5003;49075;53.988;27.678;2022-09-20T13:38:42;6.6;6.6;4.8
62981;PMS5003;49075;53.988;27.678;2022-09-20T13:44:18;6.2;6.2;5.6
62981;PMS5003;49075;53.988;27.678;2022-09-20T13:49:14;8.2;7.8;5.2
62981;PMS5003;49075;53.988;27.678;2022-09-20T13:54:22;9.6;9.4;7.4
62981;PMS5003;49075;53.988;27.678;2022-09-20T13:59:04;9.2;8.8;6.6
62981;PMS5003;49075;53.988;27.678;2022-09-20T14:03:42;11.8;11.6;8.2
62981;PMS5003;49075;53.988;27.678;2022-09-20T14:09:27;14.4;13.8;10.4
62981;PMS5003;49075;53.988;27.678;2022-09-20T14:14:18;17.8;17.2;12.4
62981;PMS5003;49075;53.988;27.678;2022-09-20T14:18:54;14.6;13.2;9
62981;PMS5003;49075;53.988;27.678;2022-09-20T14:24:01;12.2;11.8;9
62981;PMS5003;49075;53.988;27.678;2022-09-20T14:28:41;11.7;11.3;8.7
62981;PMS5003;49075;53.988;27.678;2022-09-20T14:33:32;10.4;10.4;7.2
62981;PMS5003;49075;53.988;27.678;2022-09-20T14:38:42;12.8;12;8.4
62981;PMS5003;49075;53.988;27.678;2022-09-20T14:43:57;10.6;10.6;8.2
62981;PMS5003;49075;53.988;27.678;2022-09-20T14:53:45;9.8;9.2;6.8
62981;PMS5003;49075;53.988;27.678;2022-09-20T14:59:22;8.4;8;6
62981;PMS5003;49075;53.988;27.678;2022-09-20T15:04:22;8.4;8.2;6.2
62981;PMS5003;49075;53.988;27.678;2022-09-20T15:08:34;9;9;6.4
62981;PMS5003;49075;53.988;27.678;2022-09-20T15:13:47;9.8;9.8;7.4
62981;PMS5003;49075;53.988;27.678;2022-09-20T15:19:08;9.2;8.8;6.8
62981;PMS5003;49075;53.988;27.678;2022-09-20T15:23:54;9.8;9.6;6.8
62981;PMS5003;49075;53.988;27.678;2022-09-20T15:29:22;10.2;10;8
62981;PMS5003;49075;53.988;27.678;2022-09-20T15:33:56;8.8;8.5;6.8
62981;PMS5003;49075;53.988;27.678;2022-09-20T15:38:46;9.2;8.2;6.2
62981;PMS5003;49075;53.988;27.678;2022-09-20T15:43:34;10.2;10.2;7.6
62981;PMS5003;49075;53.988;27.678;2022-09-20T15:48:44;9;8.8;6.4
62981;PMS5003;49075;53.988;27.678;2022-09-20T15:54:20;12;12;7.6
62981;PMS5003;49075;53.988;27.678;2022-09-20T15:58:48;10.2;9.8;7.6
62981;PMS5003;49075;53.988;27.678;2022-09-20T16:04:19;6.8;6.4;4.4
62981;PMS5003;49075;53.988;27.678;2022-09-20T16:09:16;9.2;9;6.6
62981;PMS5003;49075;53.988;27.678;2022-09-20T16:13:45;8;7.6;5.8
62981;PMS5003;49075;53.988;27.678;2022-09-20T16:19:14;7.4;7.2;5.6
62981;PMS5003;49075;53.988;27.678;2022-09-20T16:23:47;7.4;7.4;6
62981;PMS5003;49075;53.988;27.678;2022-09-20T16:29:16;8.2;8.2;6.4
62981;PMS5003;49075;53.988;27.678;2022-09-20T16:34:19;7.3;7.3;5.5
62981;PMS5003;49075;53.988;27.678;2022-09-20T16:38:42;9.8;9.4;6.8
62981;PMS5003;49075;53.988;27.678;2022-09-20T16:43:34;10.2;10.2;6.8
62981;PMS5003;49075;53.988;27.678;2022-09-20T16:48:58;11.8;11.4;8
62981;PMS5003;49075;53.988;27.678;2022-09-20T16:54:20;12;11.4;7.2
62981;PMS5003;49075;53.988;27.678;2022-09-20T16:58:47;12.8;12.6;8.4
62981;PMS5003;49075;53.988;27.678;2022-09-20T17:04:17;12.2;12;8.8
62981;PMS5003;49075;53.988;27.678;2022-09-20T17:08:41;17;16;11
62981;PMS5003;49075;53.988;27.678;2022-09-20T17:14:17;16.2;15.4;9.8
62981;PMS5003;49075;53.988;27.678;2022-09-20T17:18:44;14.8;14.2;10
62981;PMS5003;49075;53.988;27.678;2022-09-20T17:24:17;19.3;19;11.3
62981;PMS5003;49075;53.988;27.678;2022-09-20T17:28:36;13.5;12.3;7.8
62981;PMS5003;49075;53.988;27.678;2022-09-20T17:34:13;15;14.8;9.5
62981;PMS5003;49075;53.988;27.678;2022-09-20T17:38:46;13.6;13.2;8.2
62981;PMS5003;49075;53.988;27.678;2022-09-20T17:43:53;17;16.3;10
62981;PMS5003;49075;53.988;27.678;2022-09-20T17:49:16;12;11.6;7.8
62981;PMS5003;49075;53.988;27.678;2022-09-20T17:54:14;15.3;14.5;9.3
62981;PMS5003;49075;53.988;27.678;2022-09-20T17:59:17;17.3;16.8;11.3
62981;PMS5003;49075;53.988;27.678;2022-09-20T18:03:44;15.6;14;8.6
62981;PMS5003;49075;53.988;27.678;2022-09-20T18:09:19;13;12.2;8.8
62981;PMS5003;49075;53.988;27.678;2022-09-20T18:13:54;11.8;11.8;8.4
62981;PMS5003;49075;53.988;27.678;2022-09-20T18:18:45;14;13.2;9.4
62981;PMS5003;49075;53.988;27.678;2022-09-20T18:23:47;13.2;13;8.6
62981;PMS5003;49075;53.988;27.678;2022-09-20T18:28:56;15.6;14.8;9.6
62981;PMS5003;49075;53.988;27.678;2022-09-20T18:33:55;18.4;17.6;11.8
62981;PMS5003;49075;53.988;27.678;2022-09-20T18:38:51;20.8;20.2;12
62981;PMS5003;49075;53.988;27.678;2022-09-20T18:44:21;18.2;17.4;11.4
62981;PMS5003;49075;53.988;27.678;2022-09-20T18:48:44;14.8;14.4;8.4
62981;PMS5003;49075;53.988;27.678;2022-09-20T18:54:18;12;11.3;7.8
62981;PMS5003;49075;53.988;27.678;2022-09-20T18:58:44;14.6;14.6;10
62981;PMS5003;49075;53.988;27.678;2022-09-20T19:03:49;14.8;13.8;9.2
62981;PMS5003;49075;53.988;27.678;2022-09-20T19:14:04;17.4;16.4;11.4
62981;PMS5003;49075;53.988;27.678;2022-09-20T19:19:22;18;16.8;10.8
62981;PMS5003;49075;53.988;27.678;2022-09-20T19:24:03;19.2;19;11.4
62981;PMS5003;49075;53.988;27.678;2022-09-20T19:28:42;18.8;18.4;11.4
62981;PMS5003;49075;53.988;27.678;2022-09-20T19:33:43;16;14.6;9
62981;PMS5003;49075;53.988;27.678;2022-09-20T19:39:29;19.3;19;10.8
62981;PMS5003;49075;53.988;27.678;2022-09-20T19:45:29;18.3;16.8;10.3
62981;PMS5003;49075;53.988;27.678;2022-09-20T19:48:47;14;13;8.4
62981;PMS5003;49075;53.988;27.678;2022-09-20T19:53:35;17.4;17.4;10.8
62981;PMS5003;49075;53.988;27.678;2022-09-20T19:58:45;16;15.4;9.4
62981;PMS5003;49075;53.988;27.678;2022-09-20T20:04:15;17.8;17.2;10.8
62981;PMS5003;49075;53.988;27.678;2022-09-20T20:09:37;19;18.2;10
62981;PMS5003;49075;53.988;27.678;2022-09-20T20:13:40;16.4;15;8.4
62981;PMS5003;49075;53.988;27.678;2022-09-20T20:18:56;19.4;18.4;10.6
62981;PMS5003;49075;53.988;27.678;2022-09-20T20:23:45;19.2;18.6;12
62981;PMS5003;49075;53.988;27.678;2022-09-20T20:28:42;14.8;14.6;8.2
62981;PMS5003;49075;53.988;27.678;2022-09-20T20:33:44;17;16.6;9.6
62981;PMS5003;49075;53.988;27.678;2022-09-20T20:38:35;16.4;15.4;9.4
62981;PMS5003;49075;53.988;27.678;2022-09-20T20:44:18;18;17.8;10.8
62981;PMS5003;49075;53.988;27.678;2022-09-20T20:48:45;14.8;14.6;9.6
62981;PMS5003;49075;53.988;27.678;2022-09-20T20:54:06;15.2;15.2;9.4
62981;PMS5003;49075;53.988;27.678;2022-09-20T20:58:47;17.6;16.2;10.8
62981;PMS5003;49075;53.988;27.678;2022-09-20T21:03:57;20.4;19.4;13.8
62981;PMS5003;49075;53.988;27.678;2022-09-20T21:08:41;18.4;17.6;12
62981;PMS5003;49075;53.988;27.678;2022-09-20T21:14:18;18;16.8;11
62981;PMS5003;49075;53.988;27.678;2022-09-20T21:18:41;17.6;16.6;10.4
62981;PMS5003;49075;53.988;27.678;2022-09-20T21:23:46;16.4;16.4;10.2
62981;PMS5003;49075;53.988;27.678;2022-09-20T21:29:20;17.2;16;10.6
62981;PMS5003;49075;53.988;27.678;2022-09-20T21:33:45;14.6;13.8;8.8
62981;PMS5003;49075;53.988;27.678;2022-09-20T21:38:43;18.8;18.4;12.4
62981;PMS5003;49075;53.988;27.678;2022-09-20T21:43:45;17.5;16.5;10.8
62981;PMS5003;49075;53.988;27.678;2022-09-20T21:48:47;24.8;23;14.6
62981;PMS5003;49075;53.988;27.678;2022-09-20T21:54:08;24.8;23.4;15.4
62981;PMS5003;49075;53.988;27.678;2022-09-20T21:59:21;22.2;21.4;14.4
62981;PMS5003;49075;53.988;27.678;2022-09-20T22:03:54;22;21;14.3
62981;PMS5003;49075;53.988;27.678;2022-09-20T22:08:53;16.8;16.6;11.2
62981;PMS5003;49075;53.988;27.678;2022-09-20T22:13:37;16.5;16.3;11.3
62981;PMS5003;49075;53.988;27.678;2022-09-20T22:18:57;19.4;18.6;11.6
62981;PMS5003;49075;53.988;27.678;2022-09-20T22:23:54;18.2;17.6;11
62981;PMS5003;49075;53.988;27.678;2022-09-20T22:28:45;16.8;15.6;9.6
62981;PMS5003;49075;53.988;27.678;2022-09-20T22:33:33;17.2;17.2;11.6
62981;PMS5003;49075;53.988;27.678;2022-09-20T22:38:45;18.8;18.6;12.2
62981;PMS5003;49075;53.988;27.678;2022-09-20T22:43:53;17.2;16.6;9.8
62981;PMS5003;49075;53.988;27.678;2022-09-20T22:48:53;19;18.2;11
62981;PMS5003;49075;53.988;27.678;2022-09-20T22:53:45;17.2;16.2;10.4
62981;PMS5003;49075;53.988;27.678;2022-09-20T22:59:17;18.6;17.8;12.2
62981;PMS5003;49075;53.988;27.678;2022-09-20T23:04:17;19.8;18.8;12.4
62981;PMS5003;49075;53.988;27.678;2022-09-20T23:08:35;16.2;15;10.2
62981;PMS5003;49075;53.988;27.678;2022-09-20T23:14:16;18.3;17.3;12
62981;PMS5003;49075;53.988;27.678;2022-09-20T23:18:45;18;16.4;10.4
62981;PMS5003;49075;53.988;27.678;2022-09-20T23:23:35;16;15.2;9.6
62981;PMS5003;49075;53.988;27.678;2022-09-20T23:28:35;17.8;17.4;11.2
62981;PMS5003;49075;53.988;27.678;2022-09-20T23:33:45;19.6;18.2;11.6
62981;PMS5003;49075;53.988;27.678;2022-09-20T23:39:17;20.2;19.4;12.2
62981;PMS5003;49075;53.988;27.678;2022-09-20T23:44:05;15.4;14.6;9.2
62981;PMS5003;49075;53.988;27.678;2022-09-20T23:49:17;14.6;13.2;8.8
62981;PMS5003;49075;53.988;27.678;2022-09-20T23:53:47;17.6;17;11.4
62981;PMS5003;49075;53.988;27.678;2022-09-20T23:59:15;21;20.6;13
